createdAt,value
2023-05-16T00:00:02.061Z,526.20
2023-05-16T00:01:02.094Z,521.30
2023-05-16T00:02:02.066Z,521.40
2023-05-16T00:03:02.111Z,518.50
2023-05-16T00:04:02.065Z,558.20
2023-05-16T00:05:02.049Z,542.20
2023-05-16T00:06:02.032Z,527.40
2023-05-16T00:07:01.992Z,525.50
2023-05-16T00:08:01.989Z,522.80
2023-05-16T00:09:01.973Z,520.40
2023-05-16T00:10:02.031Z,509.60
2023-05-16T00:11:01.975Z,506.30
2023-05-16T00:12:01.923Z,526.50
2023-05-16T00:13:02.151Z,520.30
2023-05-16T00:14:01.906Z,484.50
2023-05-16T00:15:01.943Z,519.70
2023-05-16T00:16:01.872Z,497.00
2023-05-16T00:17:01.995Z,484.20
2023-05-16T00:18:02.025Z,597.80
2023-05-16T00:19:01.911Z,546.90
2023-05-16T00:20:01.861Z,541.00
2023-05-16T00:21:01.822Z,637.00
2023-05-16T00:22:01.817Z,510.70
2023-05-16T00:23:01.818Z,539.30
2023-05-16T00:24:01.816Z,575.10
2023-05-16T00:25:01.786Z,524.60
2023-05-16T00:26:01.752Z,528.50
2023-05-16T00:27:01.752Z,508.20
2023-05-16T00:28:01.754Z,502.90
2023-05-16T00:29:01.764Z,545.90
2023-05-16T00:30:01.712Z,498.30
2023-05-16T00:31:01.718Z,509.80
2023-05-16T00:32:01.713Z,496.70
2023-05-16T00:33:01.782Z,511.40
2023-05-16T00:34:01.764Z,516.00
2023-05-16T00:35:01.675Z,522.40
2023-05-16T00:36:01.653Z,502.70
2023-05-16T00:37:01.663Z,548.40
2023-05-16T00:38:01.704Z,509.60
2023-05-16T00:39:01.627Z,523.40
2023-05-16T00:40:01.625Z,549.90
2023-05-16T00:41:01.620Z,511.90
2023-05-16T00:42:01.616Z,527.60
2023-05-16T00:43:01.601Z,575.30
2023-05-16T00:44:01.558Z,519.00
2023-05-16T00:45:01.547Z,522.10
2023-05-16T00:46:01.576Z,567.10
2023-05-16T00:47:01.560Z,560.50
2023-05-16T00:48:01.541Z,537.90
2023-05-16T00:49:01.526Z,528.90
2023-05-16T00:50:01.533Z,540.80
2023-05-16T00:51:01.492Z,528.70
2023-05-16T00:52:01.509Z,567.60
2023-05-16T00:53:01.469Z,539.40
2023-05-16T00:54:01.492Z,613.00
2023-05-16T00:55:01.481Z,495.70
2023-05-16T00:56:01.420Z,508.60
2023-05-16T00:57:01.481Z,615.80
2023-05-16T00:58:01.449Z,468.30
2023-05-16T00:59:01.417Z,498.80
2023-05-16T01:00:01.386Z,602.00
2023-05-16T01:01:01.429Z,593.80
2023-05-16T01:02:01.484Z,603.00
2023-05-16T01:03:01.476Z,598.50
2023-05-16T01:04:01.581Z,532.20
2023-05-16T01:05:01.345Z,625.30
2023-05-16T01:06:01.356Z,564.30
2023-05-16T01:07:01.285Z,582.00
2023-05-16T01:08:01.311Z,621.70
2023-05-16T01:09:01.306Z,608.50
2023-05-16T01:10:01.284Z,622.10
2023-05-16T01:11:01.319Z,615.70
2023-05-16T01:12:01.274Z,603.30
2023-05-16T01:13:01.247Z,600.00
2023-05-16T01:14:01.223Z,644.80
2023-05-16T01:15:01.264Z,635.70
2023-05-16T01:16:01.273Z,618.90
2023-05-16T01:17:01.182Z,619.50
2023-05-16T01:18:01.209Z,647.00
2023-05-16T01:19:01.233Z,647.50
2023-05-16T01:20:01.227Z,652.20
2023-05-16T01:21:01.150Z,635.80
2023-05-16T01:22:01.152Z,646.00
2023-05-16T01:23:01.132Z,649.80
2023-05-16T01:24:01.127Z,649.30
2023-05-16T01:25:01.162Z,654.80
2023-05-16T01:26:01.114Z,664.00
2023-05-16T01:27:01.089Z,665.10
2023-05-16T01:28:01.091Z,666.40
2023-05-16T01:29:01.090Z,649.20
2023-05-16T01:30:01.084Z,658.50
2023-05-16T01:31:01.138Z,662.30
2023-05-16T01:32:01.128Z,667.70
2023-05-16T01:33:01.096Z,659.40
2023-05-16T01:34:01.028Z,662.40
2023-05-16T01:35:00.997Z,669.40
2023-05-16T01:36:00.997Z,680.90
2023-05-16T01:37:00.972Z,672.30
2023-05-16T01:38:00.987Z,673.30
2023-05-16T01:39:00.992Z,663.50
2023-05-16T01:40:00.948Z,671.40
2023-05-16T01:41:00.929Z,685.80
2023-05-16T01:42:00.926Z,667.50
2023-05-16T01:43:00.937Z,660.80
2023-05-16T01:44:00.943Z,659.70
2023-05-16T01:45:00.886Z,642.80
2023-05-16T01:46:00.857Z,646.50
2023-05-16T01:47:00.924Z,639.30
2023-05-16T01:48:00.906Z,622.50
2023-05-16T01:49:00.865Z,608.90
2023-05-16T01:50:00.833Z,601.60
2023-05-16T01:51:00.839Z,592.80
2023-05-16T01:52:00.835Z,597.60
2023-05-16T01:53:00.832Z,583.00
2023-05-16T01:54:00.793Z,578.80
2023-05-16T01:55:00.804Z,559.20
2023-05-16T01:56:00.752Z,543.20
2023-05-16T01:57:00.745Z,552.90
2023-05-16T01:58:00.770Z,544.80
2023-05-16T01:59:00.739Z,512.70
2023-05-16T02:00:00.740Z,510.80
2023-05-16T02:01:00.724Z,492.90
2023-05-16T02:02:00.736Z,490.50
2023-05-16T02:03:00.749Z,488.80
2023-05-16T02:04:00.726Z,500.80
2023-05-16T02:05:00.667Z,499.40
2023-05-16T02:06:00.652Z,510.00
2023-05-16T02:07:00.663Z,548.20
2023-05-16T02:08:00.622Z,572.10
2023-05-16T02:09:00.592Z,566.10
2023-05-16T02:10:00.615Z,565.60
2023-05-16T02:11:00.583Z,574.30
2023-05-16T02:12:00.624Z,592.20
2023-05-16T02:13:00.589Z,631.10
2023-05-16T02:14:00.553Z,638.20
2023-05-16T02:15:00.555Z,645.40
2023-05-16T02:16:00.578Z,640.20
2023-05-16T02:17:00.634Z,631.20
2023-05-16T02:18:00.578Z,642.60
2023-05-16T02:19:00.520Z,629.70
2023-05-16T02:20:00.492Z,639.20
2023-05-16T02:21:00.502Z,603.90
2023-05-16T02:22:00.451Z,595.90
2023-05-16T02:23:00.441Z,568.30
2023-05-16T02:24:00.444Z,588.00
2023-05-16T02:25:00.430Z,579.90
2023-05-16T02:26:00.470Z,576.80
2023-05-16T02:27:00.404Z,580.30
2023-05-16T02:28:00.406Z,571.10
2023-05-16T02:29:00.380Z,563.50
2023-05-16T02:30:00.454Z,567.60
2023-05-16T02:31:00.427Z,626.10
2023-05-16T02:32:00.362Z,637.30
2023-05-16T02:33:00.413Z,638.60
2023-05-16T02:34:00.322Z,636.90
2023-05-16T02:35:00.354Z,645.10
2023-05-16T02:36:00.298Z,644.90
2023-05-16T02:37:00.277Z,648.70
2023-05-16T02:38:00.284Z,635.40
2023-05-16T02:39:00.264Z,609.20
2023-05-16T02:40:00.302Z,651.10
2023-05-16T02:41:00.243Z,634.40
2023-05-16T02:42:00.231Z,617.50
2023-05-16T02:43:00.217Z,599.90
2023-05-16T02:44:00.212Z,643.20
2023-05-16T02:45:00.272Z,624.10
2023-05-16T02:46:00.225Z,593.30
2023-05-16T02:47:00.184Z,627.70
2023-05-16T02:48:00.222Z,609.90
2023-05-16T02:49:00.168Z,602.00
2023-05-16T02:50:00.177Z,587.90
2023-05-16T02:51:00.132Z,608.40
2023-05-16T02:52:00.138Z,608.50
2023-05-16T02:53:00.137Z,603.60
2023-05-16T02:54:00.159Z,597.30
2023-05-16T02:55:16.840Z,560.90
2023-05-16T02:56:01.090Z,552.60
2023-05-16T02:57:00.063Z,532.40
2023-05-16T02:58:00.122Z,543.80
2023-05-16T02:59:00.077Z,524.50
2023-05-16T03:00:00.047Z,514.80
2023-05-16T03:01:00.028Z,511.40
2023-05-16T03:02:00.085Z,516.20
2023-05-16T03:03:00.106Z,518.80
2023-05-16T03:04:00.085Z,534.80
2023-05-16T03:05:00.020Z,553.90
2023-05-16T03:05:59.976Z,547.50
2023-05-16T03:06:59.966Z,553.20
2023-05-16T03:07:59.975Z,581.60
2023-05-16T03:08:59.935Z,558.30
2023-05-16T03:09:59.945Z,546.00
2023-05-16T03:10:59.918Z,545.70
2023-05-16T03:11:59.914Z,550.60
2023-05-16T03:12:59.936Z,539.50
2023-05-16T03:14:01.675Z,507.80
2023-05-16T03:14:59.864Z,503.70
2023-05-16T03:15:59.900Z,502.10
2023-05-16T03:16:59.873Z,492.30
2023-05-16T03:17:59.932Z,498.80
2023-05-16T03:18:59.892Z,493.00
2023-05-16T03:19:59.806Z,493.10
2023-05-16T03:20:59.770Z,502.10
2023-05-16T03:21:59.821Z,500.50
2023-05-16T03:22:59.782Z,486.20
2023-05-16T03:23:59.806Z,486.90
2023-05-16T03:24:59.754Z,498.80
2023-05-16T03:25:59.736Z,510.70
2023-05-16T03:26:59.759Z,528.10
2023-05-16T03:27:59.720Z,526.80
2023-05-16T03:28:59.703Z,534.90
2023-05-16T03:29:59.704Z,305.30
2023-05-16T03:30:59.717Z,339.50
2023-05-16T03:31:59.761Z,321.70
2023-05-16T03:32:59.690Z,283.80
2023-05-16T03:33:59.652Z,302.00
2023-05-16T03:34:59.644Z,326.00
2023-05-16T03:35:59.673Z,254.90
2023-05-16T03:36:59.619Z,277.60
2023-05-16T03:37:59.619Z,254.90
2023-05-16T03:38:59.605Z,272.50
2023-05-16T03:39:59.608Z,492.90
2023-05-16T03:40:59.613Z,258.70
2023-05-16T03:41:59.590Z,358.90
2023-05-16T03:42:59.551Z,278.50
2023-05-16T03:43:59.521Z,319.70
2023-05-16T03:44:59.585Z,275.50
2023-05-16T03:45:59.590Z,288.20
2023-05-16T03:46:59.504Z,478.30
2023-05-16T03:47:59.523Z,287.40
2023-05-16T03:48:59.481Z,278.10
2023-05-16T03:49:59.538Z,536.70
2023-05-16T03:50:59.467Z,261.90
2023-05-16T03:51:59.445Z,253.80
2023-05-16T03:52:59.442Z,320.30
2023-05-16T03:53:59.417Z,280.10
2023-05-16T03:54:59.450Z,562.10
2023-05-16T03:55:59.427Z,372.50
2023-05-16T03:56:59.393Z,286.00
2023-05-16T03:57:59.380Z,315.90
2023-05-16T03:58:59.398Z,332.90
2023-05-16T03:59:59.387Z,325.50
2023-05-16T04:00:59.343Z,309.60
2023-05-16T04:01:59.373Z,305.70
2023-05-16T04:02:59.336Z,293.70
2023-05-16T04:03:59.353Z,533.00
2023-05-16T04:04:59.307Z,250.30
2023-05-16T04:05:59.350Z,261.50
2023-05-16T04:06:59.269Z,240.10
2023-05-16T04:07:59.277Z,224.40
2023-05-16T04:08:59.289Z,231.50
2023-05-16T04:09:59.261Z,259.10
2023-05-16T04:10:59.238Z,267.60
2023-05-16T04:11:59.223Z,274.70
2023-05-16T04:12:59.239Z,259.60
2023-05-16T04:13:59.259Z,265.70
2023-05-16T04:14:59.206Z,302.00
2023-05-16T04:15:59.194Z,296.30
2023-05-16T04:16:59.174Z,271.50
2023-05-16T04:17:59.271Z,299.90
2023-05-16T04:18:59.212Z,327.60
2023-05-16T04:19:59.140Z,334.00
2023-05-16T04:20:59.129Z,345.30
2023-05-16T04:21:59.107Z,329.10
2023-05-16T04:22:59.112Z,332.20
2023-05-16T04:23:59.090Z,330.30
2023-05-16T04:24:59.073Z,321.60
2023-05-16T04:25:59.063Z,299.00
2023-05-16T04:26:59.048Z,272.80
2023-05-16T04:27:59.098Z,278.70
2023-05-16T04:29:00.206Z,274.40
2023-05-16T04:29:59.024Z,327.20
2023-05-16T04:30:59.057Z,426.40
2023-05-16T04:31:59.054Z,435.50
2023-05-16T04:32:59.038Z,422.20
2023-05-16T04:33:58.977Z,288.20
2023-05-16T04:34:58.966Z,357.90
2023-05-16T04:35:58.952Z,298.00
2023-05-16T04:36:58.970Z,382.00
2023-05-16T04:37:58.962Z,360.40
2023-05-16T04:38:58.917Z,345.30
2023-05-16T04:39:58.956Z,478.40
2023-05-16T04:40:58.910Z,244.60
2023-05-16T04:41:58.945Z,280.60
2023-05-16T04:42:58.881Z,246.40
2023-05-16T04:43:58.877Z,253.60
2023-05-16T04:44:58.856Z,255.90
2023-05-16T04:45:58.951Z,399.10
2023-05-16T04:46:58.975Z,272.10
2023-05-16T04:47:58.876Z,241.10
2023-05-16T04:48:58.799Z,232.10
2023-05-16T04:49:58.896Z,240.40
2023-05-16T04:50:58.803Z,478.60
2023-05-16T04:51:58.804Z,232.60
2023-05-16T04:52:58.788Z,210.70
2023-05-16T04:53:58.732Z,221.50
2023-05-16T04:54:58.734Z,213.70
2023-05-16T04:55:58.749Z,213.50
2023-05-16T04:56:58.714Z,235.30
2023-05-16T04:57:58.706Z,255.70
2023-05-16T04:58:58.687Z,398.50
2023-05-16T04:59:58.682Z,207.50
2023-05-16T05:01:01.695Z,290.30
2023-05-16T05:01:58.672Z,339.40
2023-05-16T05:02:58.713Z,259.40
2023-05-16T05:03:58.657Z,214.70
2023-05-16T05:04:58.750Z,268.90
2023-05-16T05:05:58.649Z,248.30
2023-05-16T05:06:58.639Z,214.40
2023-05-16T05:07:58.605Z,217.40
2023-05-16T05:08:58.589Z,239.50
2023-05-16T05:09:58.593Z,267.70
2023-05-16T05:10:58.557Z,255.70
2023-05-16T05:11:58.543Z,311.00
2023-05-16T05:12:58.538Z,322.90
2023-05-16T05:13:58.511Z,335.90
2023-05-16T05:14:58.556Z,310.20
2023-05-16T05:15:58.482Z,351.50
2023-05-16T05:16:58.515Z,320.90
2023-05-16T05:17:58.609Z,351.10
2023-05-16T05:18:58.606Z,348.80
2023-05-16T05:20:00.026Z,341.30
2023-05-16T05:20:58.461Z,342.30
2023-05-16T05:21:58.450Z,313.80
2023-05-16T05:22:58.404Z,375.00
2023-05-16T05:23:58.419Z,263.60
2023-05-16T05:24:58.454Z,329.20
2023-05-16T05:25:58.376Z,343.50
2023-05-16T05:26:58.382Z,311.90
2023-05-16T05:27:58.355Z,251.30
2023-05-16T05:29:05.113Z,245.70
2023-05-16T05:29:59.347Z,259.20
2023-05-16T05:30:58.348Z,167.40
2023-05-16T05:31:58.388Z,257.50
2023-05-16T05:32:58.357Z,171.60
2023-05-16T05:33:58.352Z,334.00
2023-05-16T05:34:58.282Z,151.80
2023-05-16T05:35:58.275Z,204.40
2023-05-16T05:36:58.246Z,153.00
2023-05-16T05:37:58.277Z,137.80
2023-05-16T05:38:58.288Z,139.30
2023-05-16T05:39:58.221Z,191.30
2023-05-16T05:40:58.237Z,138.30
2023-05-16T05:41:58.215Z,204.40
2023-05-16T05:42:58.205Z,170.00
2023-05-16T05:43:58.183Z,139.10
2023-05-16T05:44:58.179Z,160.20
2023-05-16T05:45:58.242Z,153.80
2023-05-16T05:46:58.158Z,157.90
2023-05-16T05:47:58.190Z,162.30
2023-05-16T05:48:58.130Z,129.00
2023-05-16T05:49:58.130Z,147.90
2023-05-16T05:50:58.097Z,196.30
2023-05-16T05:51:58.088Z,205.30
2023-05-16T05:52:58.103Z,208.90
2023-05-16T05:53:58.053Z,399.30
2023-05-16T05:54:58.052Z,174.00
2023-05-16T05:55:58.040Z,218.00
2023-05-16T05:56:58.079Z,224.10
2023-05-16T05:57:58.046Z,217.10
2023-05-16T05:58:58.029Z,232.30
2023-05-16T05:59:58.016Z,239.40
2023-05-16T06:00:57.986Z,234.20
2023-05-16T06:01:58.123Z,241.50
2023-05-16T06:02:58.042Z,246.30
2023-05-16T06:03:59.216Z,368.20
2023-05-16T06:04:57.972Z,151.10
2023-05-16T06:05:58.163Z,185.60
2023-05-16T06:06:57.945Z,291.90
2023-05-16T06:07:57.934Z,158.50
2023-05-16T06:08:57.933Z,197.70
2023-05-16T06:09:57.905Z,232.90
2023-05-16T06:10:57.902Z,177.50
2023-05-16T06:11:57.933Z,208.00
2023-05-16T06:12:57.855Z,204.90
2023-05-16T06:13:57.842Z,220.00
2023-05-16T06:14:57.803Z,199.10
2023-05-16T06:15:57.866Z,211.60
2023-05-16T06:16:57.851Z,223.20
2023-05-16T06:17:57.817Z,205.60
2023-05-16T06:18:57.897Z,226.30
2023-05-16T06:19:57.767Z,230.40
2023-05-16T06:20:57.775Z,210.00
2023-05-16T06:21:57.772Z,267.40
2023-05-16T06:22:57.808Z,179.20
2023-05-16T06:23:57.747Z,175.20
2023-05-16T06:24:57.742Z,168.90
2023-05-16T06:25:57.714Z,182.10
2023-05-16T06:26:57.695Z,274.40
2023-05-16T06:27:57.682Z,319.70
2023-05-16T06:28:57.661Z,148.00
2023-05-16T06:29:57.680Z,194.00
2023-05-16T06:30:57.703Z,200.20
2023-05-16T06:31:57.818Z,323.40
2023-05-16T06:32:57.682Z,160.30
2023-05-16T06:33:57.645Z,209.90
2023-05-16T06:34:57.644Z,217.40
2023-05-16T06:35:57.605Z,214.50
2023-05-16T06:36:57.586Z,200.20
2023-05-16T06:37:57.556Z,189.90
2023-05-16T06:38:57.571Z,175.40
2023-05-16T06:39:57.603Z,180.10
2023-05-16T06:40:57.527Z,172.00
2023-05-16T06:41:57.533Z,343.10
2023-05-16T06:42:57.492Z,162.00
2023-05-16T06:43:57.540Z,190.10
2023-05-16T06:44:57.509Z,271.80
2023-05-16T06:45:57.485Z,153.10
2023-05-16T06:46:57.628Z,141.70
2023-05-16T06:47:57.732Z,119.60
2023-05-16T06:48:57.471Z,112.80
2023-05-16T06:49:57.455Z,141.80
2023-05-16T06:50:57.405Z,172.40
2023-05-16T06:51:57.421Z,71.80
2023-05-16T06:52:57.424Z,103.40
2023-05-16T06:53:57.425Z,134.50
2023-05-16T06:54:57.447Z,196.80
2023-05-16T06:55:57.380Z,80.40
2023-05-16T06:56:57.351Z,91.60
2023-05-16T06:57:57.377Z,89.40
2023-05-16T06:58:57.374Z,90.70
2023-05-16T06:59:57.328Z,266.80
2023-05-16T07:00:57.368Z,66.60
2023-05-16T07:01:57.451Z,71.30
2023-05-16T07:02:57.437Z,111.00
2023-05-16T07:03:57.398Z,73.80
2023-05-16T07:04:57.271Z,86.40
2023-05-16T07:05:57.283Z,314.70
2023-05-16T07:06:57.323Z,78.30
2023-05-16T07:07:57.254Z,299.60
2023-05-16T07:08:57.280Z,66.00
2023-05-16T07:09:57.190Z,69.10
2023-05-16T07:10:57.184Z,71.70
2023-05-16T07:11:57.194Z,297.80
2023-05-16T07:12:57.231Z,55.20
2023-05-16T07:13:57.160Z,54.30
2023-05-16T07:14:57.154Z,53.90
2023-05-16T07:15:57.141Z,102.90
2023-05-16T07:16:57.196Z,49.70
2023-05-16T07:17:57.188Z,178.40
2023-05-16T07:18:57.163Z,50.90
2023-05-16T07:19:57.102Z,58.50
2023-05-16T07:20:57.089Z,58.30
2023-05-16T07:21:57.105Z,65.70
2023-05-16T07:22:57.084Z,55.20
2023-05-16T07:23:57.057Z,56.80
2023-05-16T07:24:57.044Z,267.50
2023-05-16T07:25:57.085Z,47.00
2023-05-16T07:26:57.054Z,49.50
2023-05-16T07:27:57.013Z,50.90
2023-05-16T07:28:56.998Z,238.70
2023-05-16T07:29:56.989Z,44.80
2023-05-16T07:30:57.014Z,48.50
2023-05-16T07:31:57.062Z,52.00
2023-05-16T07:33:01.531Z,55.10
2023-05-16T07:33:56.933Z,70.20
2023-05-16T07:34:56.917Z,213.40
2023-05-16T07:36:08.120Z,52.60
2023-05-16T07:36:57.918Z,49.60
2023-05-16T07:37:56.880Z,174.00
2023-05-16T07:38:56.861Z,48.30
2023-05-16T07:39:56.866Z,51.80
2023-05-16T07:40:56.896Z,52.00
2023-05-16T07:41:56.874Z,107.40
2023-05-16T07:42:56.822Z,80.80
2023-05-16T07:43:56.827Z,53.30
2023-05-16T07:44:56.879Z,332.90
2023-05-16T07:45:56.810Z,54.50
2023-05-16T07:46:56.792Z,222.90
2023-05-16T07:47:56.939Z,60.40
2023-05-16T07:48:56.771Z,56.60
2023-05-16T07:49:56.773Z,280.90
2023-05-16T07:50:56.753Z,57.20
2023-05-16T07:51:56.723Z,58.10
2023-05-16T07:52:56.696Z,56.80
2023-05-16T07:53:56.730Z,69.70
2023-05-16T07:54:56.739Z,251.00
2023-05-16T07:55:56.679Z,54.90
2023-05-16T07:56:56.660Z,58.60
2023-05-16T07:57:56.663Z,383.40
2023-05-16T07:58:56.746Z,58.20
2023-05-16T07:59:56.628Z,60.50
2023-05-16T08:00:56.624Z,120.20
2023-05-16T08:01:56.646Z,46.60
2023-05-16T08:02:56.673Z,54.90
2023-05-16T08:03:56.707Z,57.20
2023-05-16T08:04:56.668Z,61.40
2023-05-16T08:05:56.601Z,51.80
2023-05-16T08:06:56.559Z,268.00
2023-05-16T08:07:56.528Z,50.50
2023-05-16T08:08:56.542Z,64.20
2023-05-16T08:09:56.500Z,220.30
2023-05-16T08:10:56.482Z,68.90
2023-05-16T08:11:56.484Z,61.90
2023-05-16T08:12:56.533Z,60.70
2023-05-16T08:13:56.515Z,66.00
2023-05-16T08:14:56.439Z,116.00
2023-05-16T08:15:56.505Z,70.40
2023-05-16T08:16:56.411Z,69.50
2023-05-16T08:17:56.581Z,68.90
2023-05-16T08:18:56.522Z,68.50
2023-05-16T08:19:56.403Z,70.60
2023-05-16T08:20:56.408Z,68.30
2023-05-16T08:21:56.386Z,77.20
2023-05-16T08:22:56.404Z,83.00
2023-05-16T08:23:56.354Z,65.10
2023-05-16T08:24:56.354Z,74.90
2023-05-16T08:25:56.338Z,74.00
2023-05-16T08:26:56.414Z,69.60
2023-05-16T08:27:56.393Z,228.30
2023-05-16T08:28:56.341Z,46.20
2023-05-16T08:29:57.170Z,66.40
2023-05-16T08:30:56.289Z,120.40
2023-05-16T08:31:56.386Z,67.60
2023-05-16T08:32:56.310Z,103.20
2023-05-16T08:33:56.248Z,59.90
2023-05-16T08:34:56.246Z,216.30
2023-05-16T08:35:56.246Z,42.30
2023-05-16T08:36:56.256Z,50.70
2023-05-16T08:37:56.182Z,178.80
2023-05-16T08:38:56.188Z,46.50
2023-05-16T08:39:56.171Z,52.10
2023-05-16T08:40:57.079Z,91.20
2023-05-16T08:41:56.224Z,55.50
2023-05-16T08:42:56.151Z,57.80
2023-05-16T08:43:56.168Z,41.70
2023-05-16T08:44:56.161Z,243.50
2023-05-16T08:45:56.207Z,42.60
2023-05-16T08:46:56.149Z,52.00
2023-05-16T08:47:56.187Z,290.80
2023-05-16T08:48:56.099Z,48.50
2023-05-16T08:49:57.044Z,44.20
2023-05-16T08:50:56.156Z,251.20
2023-05-16T08:51:56.065Z,50.30
2023-05-16T08:52:56.067Z,124.60
2023-05-16T08:53:56.048Z,61.10
2023-05-16T08:55:09.069Z,40.40
2023-05-16T08:55:57.088Z,42.10
2023-05-16T08:56:56.004Z,189.00
2023-05-16T08:57:55.968Z,30.50
2023-05-16T08:58:55.976Z,32.30
2023-05-16T08:59:58.620Z,34.10
2023-05-16T09:00:56.053Z,175.70
2023-05-16T09:01:55.929Z,27.40
2023-05-16T09:02:55.967Z,35.60
2023-05-16T09:03:55.980Z,235.10
2023-05-16T09:04:55.972Z,35.40
2023-05-16T09:05:55.901Z,41.40
2023-05-16T09:06:55.905Z,257.10
2023-05-16T09:07:55.861Z,40.00
2023-05-16T09:08:55.888Z,39.80
2023-05-16T09:09:55.889Z,48.70
2023-05-16T09:10:55.824Z,48.30
2023-05-16T09:11:55.808Z,320.20
2023-05-16T09:12:55.845Z,38.50
2023-05-16T09:13:55.834Z,45.80
2023-05-16T09:14:55.908Z,49.80
2023-05-16T09:15:55.767Z,50.20
2023-05-16T09:16:56.473Z,35.40
2023-05-16T09:17:55.910Z,51.10
2023-05-16T09:18:55.875Z,43.50
2023-05-16T09:19:55.720Z,199.80
2023-05-16T09:20:55.724Z,34.10
2023-05-16T09:21:55.714Z,42.50
2023-05-16T09:22:55.697Z,46.10
2023-05-16T09:23:55.733Z,37.80
2023-05-16T09:24:55.667Z,172.70
2023-05-16T09:25:55.698Z,53.60
2023-05-16T09:26:55.687Z,46.50
2023-05-16T09:27:55.693Z,170.30
2023-05-16T09:28:55.714Z,105.10
2023-05-16T09:29:55.633Z,49.70
2023-05-16T09:30:55.718Z,51.80
2023-05-16T09:31:55.596Z,57.30
2023-05-16T09:32:55.628Z,59.50
2023-05-16T09:33:55.614Z,71.70
2023-05-16T09:34:55.595Z,109.60
2023-05-16T09:35:55.564Z,42.10
2023-05-16T09:36:55.582Z,56.10
2023-05-16T09:37:55.550Z,64.00
2023-05-16T09:38:55.536Z,59.70
2023-05-16T09:39:55.525Z,84.60
2023-05-16T09:40:55.536Z,47.50
2023-05-16T09:41:55.521Z,120.20
2023-05-16T09:42:55.525Z,59.10
2023-05-16T09:43:55.459Z,42.30
2023-05-16T09:44:55.466Z,166.40
2023-05-16T09:45:55.486Z,46.20
2023-05-16T09:46:55.536Z,200.60
2023-05-16T09:47:55.497Z,59.30
2023-05-16T09:48:55.416Z,107.80
2023-05-16T09:49:55.419Z,45.40
2023-05-16T09:50:56.374Z,131.40
2023-05-16T09:51:55.443Z,60.10
2023-05-16T09:52:55.369Z,39.30
2023-05-16T09:53:55.358Z,121.70
2023-05-16T09:54:55.334Z,32.40
2023-05-16T09:55:55.393Z,196.40
2023-05-16T09:56:55.362Z,39.80
2023-05-16T09:57:55.332Z,208.40
2023-05-16T09:58:55.303Z,43.00
2023-05-16T09:59:55.309Z,44.00
2023-05-16T10:00:55.316Z,158.10
2023-05-16T10:01:55.320Z,45.20
2023-05-16T10:02:55.369Z,128.40
2023-05-16T10:03:55.452Z,39.70
2023-05-16T10:04:55.235Z,51.30
2023-05-16T10:05:55.280Z,99.20
2023-05-16T10:06:55.224Z,35.80
2023-05-16T10:07:55.195Z,162.20
2023-05-16T10:08:55.214Z,31.00
2023-05-16T10:09:55.235Z,216.00
2023-05-16T10:10:55.194Z,36.60
2023-05-16T10:11:55.193Z,192.10
2023-05-16T10:12:55.126Z,32.10
2023-05-16T10:13:55.172Z,37.30
2023-05-16T10:14:55.208Z,136.80
2023-05-16T10:15:55.107Z,36.00
2023-05-16T10:16:55.115Z,206.10
2023-05-16T10:17:55.179Z,31.60
2023-05-16T10:18:55.150Z,37.90
2023-05-16T10:19:55.098Z,45.20
2023-05-16T10:20:55.033Z,201.60
2023-05-16T10:21:55.025Z,33.60
2023-05-16T10:22:55.022Z,170.10
2023-05-16T10:23:55.069Z,28.20
2023-05-16T10:24:55.062Z,139.30
2023-05-16T10:25:54.991Z,29.30
2023-05-16T10:26:55.002Z,155.20
2023-05-16T10:27:54.978Z,30.50
2023-05-16T10:28:55.006Z,177.60
2023-05-16T10:29:55.278Z,31.10
2023-05-16T10:30:54.913Z,66.40
2023-05-16T10:31:54.994Z,87.00
2023-05-16T10:32:54.921Z,70.70
2023-05-16T10:33:54.919Z,117.40
2023-05-16T10:34:54.894Z,80.50
2023-05-16T10:35:54.890Z,43.00
2023-05-16T10:36:54.881Z,34.80
2023-05-16T10:37:54.917Z,39.30
2023-05-16T10:38:54.909Z,36.10
2023-05-16T10:39:54.854Z,97.00
2023-05-16T10:40:54.835Z,47.90
2023-05-16T10:41:54.990Z,38.70
2023-05-16T10:42:54.850Z,35.30
2023-05-16T10:43:54.797Z,108.70
2023-05-16T10:45:04.965Z,36.00
2023-05-16T10:45:55.807Z,90.20
2023-05-16T10:46:54.740Z,30.40
2023-05-16T10:47:54.819Z,107.50
2023-05-16T10:48:56.511Z,34.20
2023-05-16T10:49:54.732Z,28.10
2023-05-16T10:50:54.712Z,91.80
2023-05-16T10:51:54.730Z,32.10
2023-05-16T10:52:54.758Z,66.50
2023-05-16T10:53:54.867Z,28.90
2023-05-16T10:54:54.665Z,62.20
2023-05-16T10:55:54.672Z,71.90
2023-05-16T10:56:54.689Z,29.70
2023-05-16T10:57:54.635Z,137.40
2023-05-16T10:58:54.662Z,24.80
2023-05-16T10:59:56.088Z,64.70
2023-05-16T11:00:54.631Z,113.40
2023-05-16T11:01:54.790Z,25.50
2023-05-16T11:02:54.691Z,185.10
2023-05-16T11:03:54.611Z,26.10
2023-05-16T11:04:54.578Z,30.70
2023-05-16T11:05:54.557Z,59.40
2023-05-16T11:06:54.636Z,65.80
2023-05-16T11:07:54.538Z,80.10
2023-05-16T11:08:54.527Z,62.40
2023-05-16T11:09:54.540Z,29.30
2023-05-16T11:10:54.546Z,94.60
2023-05-16T11:11:54.527Z,53.20
2023-05-16T11:12:54.455Z,70.30
2023-05-16T11:13:54.459Z,77.90
2023-05-16T11:14:54.455Z,104.10
2023-05-16T11:15:54.495Z,97.30
2023-05-16T11:16:54.500Z,30.40
2023-05-16T11:17:54.582Z,162.40
2023-05-16T11:18:54.467Z,35.00
2023-05-16T11:19:54.401Z,64.90
2023-05-16T11:20:54.392Z,127.80
2023-05-16T11:21:54.376Z,39.80
2023-05-16T11:22:54.365Z,128.80
2023-05-16T11:23:54.352Z,86.70
2023-05-16T11:24:54.394Z,58.20
2023-05-16T11:25:54.370Z,148.10
2023-05-16T11:26:54.336Z,39.90
2023-05-16T11:27:54.307Z,57.30
2023-05-16T11:28:54.282Z,85.00
2023-05-16T11:29:54.333Z,67.90
2023-05-16T11:30:54.358Z,79.40
2023-05-16T11:31:54.382Z,41.30
2023-05-16T11:32:54.234Z,46.40
2023-05-16T11:33:54.235Z,163.70
2023-05-16T11:34:54.251Z,65.70
2023-05-16T11:36:01.357Z,57.00
2023-05-16T11:36:55.222Z,140.90
2023-05-16T11:37:54.181Z,55.10
2023-05-16T11:38:54.211Z,54.60
2023-05-16T11:39:54.227Z,49.60
2023-05-16T11:40:54.127Z,50.10
2023-05-16T11:41:54.166Z,44.30
2023-05-16T11:42:54.133Z,39.80
2023-05-16T11:43:54.149Z,174.60
2023-05-16T11:44:54.111Z,26.20
2023-05-16T11:45:54.089Z,53.30
2023-05-16T11:46:54.142Z,99.80
2023-05-16T11:47:54.100Z,30.10
2023-05-16T11:48:54.086Z,97.10
2023-05-16T11:49:54.061Z,25.20
2023-05-16T11:50:54.063Z,200.80
2023-05-16T11:51:54.036Z,27.70
2023-05-16T11:52:54.453Z,132.60
2023-05-16T11:53:54.019Z,34.10
2023-05-16T11:54:53.986Z,28.60
2023-05-16T11:55:55.876Z,74.30
2023-05-16T11:56:54.018Z,72.40
2023-05-16T11:57:53.997Z,32.70
2023-05-16T11:58:53.922Z,28.30
2023-05-16T11:59:53.922Z,83.80
2023-05-16T12:00:53.924Z,33.10
2023-05-16T12:01:53.899Z,47.30
2023-05-16T12:02:54.049Z,91.80
2023-05-16T12:03:54.086Z,28.90
2023-05-16T12:04:53.906Z,29.20
2023-05-16T12:05:53.868Z,31.60
2023-05-16T12:06:53.880Z,63.90
2023-05-16T12:07:53.874Z,49.40
2023-05-16T12:08:53.817Z,27.00
2023-05-16T12:09:53.876Z,118.70
2023-05-16T12:10:53.788Z,24.40
2023-05-16T12:11:53.822Z,28.40
2023-05-16T12:12:53.780Z,140.50
2023-05-16T12:13:53.772Z,27.00
2023-05-16T12:14:53.762Z,198.20
2023-05-16T12:15:53.753Z,27.20
2023-05-16T12:16:58.320Z,78.60
2023-05-16T12:17:53.773Z,44.60
2023-05-16T12:18:53.794Z,36.90
2023-05-16T12:19:53.697Z,124.50
2023-05-16T12:20:53.710Z,29.00
2023-05-16T12:21:53.702Z,71.50
2023-05-16T12:22:53.673Z,30.80
2023-05-16T12:23:53.684Z,90.10
2023-05-16T12:24:53.667Z,27.10
2023-05-16T12:25:53.654Z,89.20
2023-05-16T12:26:53.641Z,41.70
2023-05-16T12:27:53.608Z,25.10
2023-05-16T12:28:53.605Z,26.20
2023-05-16T12:29:53.592Z,30.50
2023-05-16T12:30:53.603Z,25.30
2023-05-16T12:31:53.595Z,25.20
2023-05-16T12:32:53.721Z,72.80
2023-05-16T12:33:53.552Z,23.80
2023-05-16T12:34:53.522Z,75.10
2023-05-16T12:35:53.535Z,59.00